メインページ
METAR-TAF:

METAR-TAF

空港 :

ハルツーム, スーダン

ハルツーム国際空港

緯度: 15-36N, 経度: 032-33E, 海抜: 382m

現時点の気象観測

当レポートは32分前の05:30(UTC)に作成
の風 4kt
気温 31°C
湿度 52%
気圧 1011 hPa

METAR: HSSS 200530Z 19004KT 8000M 31/20 Q1011 NOSIG

時間: 09:02 (06:02 UTC)

予報

当レポートは1時間2分前の05:00(UTC)に作成
予報は20日の 06時(UTC)から 21日の 12時(UTC)まで有効
南西の風 6kt、最大16ktの突風を伴う
視程10km以上
高度14000ftの雲は散在している
20日の 06時(UTC)から 20日の 09時(UTC)まで一時的に
視程: 6000m

TAF: HSSS 200500Z 2006/2112 22006G16KT 9999 SCT140 TEMPO 2006/2009 6000

4,000以上の空港の気象観測と天気予報(METAR報とTAF報)

利用可能な観測所は地図上に黄色い丸と赤い丸で示す。

丸の上にカーソルを重ねると観測所名を参照できる。

次にクリックすると気象観測と天気予報を参照できる。

マップの切り替え:黒色「×」印の緑ボタンをクリックして拡大、「-」印の緑ボタンをクリックして縮小、緑色の三角印をクリックして隣りの地図に切り替え


METAR-TAF: